createdAt,value
2023-02-23T00:05:02.769Z,0
2023-02-23T00:11:25.739Z,0
2023-02-23T00:17:45.823Z,0
2023-02-23T00:24:08.758Z,0
2023-02-23T00:30:28.752Z,0
2023-02-23T00:36:54.751Z,0
2023-02-23T00:43:14.761Z,0
2023-02-23T00:49:37.765Z,0
2023-02-23T00:55:57.760Z,0
2023-02-23T01:02:20.759Z,0
2023-02-23T01:08:40.790Z,0
2023-02-23T01:15:03.817Z,0
2023-02-23T01:21:23.824Z,0
2023-02-23T01:27:46.811Z,0
2023-02-23T01:34:06.812Z,0
2023-02-23T01:40:29.796Z,0
2023-02-23T01:46:49.757Z,0
2023-02-23T01:53:12.762Z,0
2023-02-23T01:59:32.785Z,0
2023-02-23T02:05:55.778Z,0
2023-02-23T02:12:15.819Z,0
2023-02-23T02:18:38.744Z,0
2023-02-23T02:24:58.874Z,0
2023-02-23T02:31:22.062Z,0
2023-02-23T02:37:41.780Z,0
2023-02-23T02:44:04.755Z,0
2023-02-23T02:50:24.793Z,0
2023-02-23T02:56:47.763Z,0
2023-02-23T03:03:07.793Z,0
2023-02-23T03:09:30.780Z,0
2023-02-23T03:15:50.821Z,0
2023-02-23T03:22:13.772Z,0
2023-02-23T03:28:33.812Z,0
2023-02-23T03:34:56.764Z,0
2023-02-23T03:41:17.112Z,0
2023-02-23T03:47:39.807Z,0
2023-02-23T03:53:59.781Z,0
2023-02-23T04:00:22.736Z,0
2023-02-23T04:06:42.760Z,0
2023-02-23T04:13:05.751Z,0
2023-02-23T04:19:25.791Z,0
2023-02-23T04:25:48.788Z,0
2023-02-23T04:41:38.623Z,0
2023-02-23T04:47:58.733Z,0
2023-02-23T04:54:21.773Z,0
2023-02-23T05:00:42.079Z,0
2023-02-23T05:07:04.764Z,0
2023-02-23T05:13:24.788Z,0
2023-02-23T05:19:47.772Z,0
2023-02-23T05:26:07.795Z,0
2023-02-23T05:32:30.835Z,0
2023-02-23T05:38:50.958Z,0
2023-02-23T05:45:13.921Z,0
2023-02-23T05:51:33.761Z,0
2023-02-23T05:57:56.808Z,0
2023-02-23T06:04:16.813Z,0
2023-02-23T06:10:39.783Z,0
2023-02-23T06:16:59.873Z,0
2023-02-23T06:23:22.777Z,0
2023-02-23T06:29:42.763Z,0
2023-02-23T06:36:05.925Z,0
2023-02-23T06:42:25.816Z,0
2023-02-23T06:48:48.798Z,0
2023-02-23T06:55:08.837Z,0
2023-02-23T07:01:31.806Z,0
2023-02-23T07:07:51.778Z,0
2023-02-23T07:14:21.387Z,0
2023-02-23T07:20:34.868Z,0
2023-02-23T07:26:57.775Z,0
2023-02-23T07:33:17.775Z,0
2023-02-23T07:39:40.800Z,0
2023-02-23T07:46:00.832Z,0
2023-02-23T07:52:23.819Z,5.62
2023-02-23T07:58:43.822Z,5.62
2023-02-23T08:05:06.786Z,5.62
2023-02-23T08:11:26.849Z,5.62
2023-02-23T08:17:49.735Z,11.25
2023-02-23T08:24:09.880Z,5.62
2023-02-23T08:30:32.952Z,5.62
2023-02-23T08:36:52.748Z,5.62
2023-02-23T08:43:16.275Z,11.25
2023-02-23T08:49:35.778Z,11.25
2023-02-23T08:55:58.766Z,5.62
2023-02-23T09:02:18.799Z,11.25
2023-02-23T09:08:41.761Z,22.5
2023-02-23T09:15:01.780Z,28.12
2023-02-23T09:21:24.781Z,22.5
2023-02-23T09:27:44.803Z,22.5
2023-02-23T09:34:07.795Z,16.88
2023-02-23T09:40:27.750Z,5.62
2023-02-23T10:03:17.789Z,11.25
2023-02-23T10:09:40.765Z,11.25
2023-02-23T10:16:00.878Z,16.88
2023-02-23T10:22:23.780Z,22.5
2023-02-23T10:28:44.028Z,22.5
2023-02-23T10:35:06.781Z,16.88
2023-02-23T10:41:26.793Z,11.25
2023-02-23T10:47:49.801Z,11.25
2023-02-23T10:54:09.755Z,33.75
2023-02-23T11:00:32.810Z,33.75
2023-02-23T11:06:52.788Z,45
2023-02-23T11:13:15.737Z,61.88
2023-02-23T11:19:35.821Z,50.62
2023-02-23T11:25:58.778Z,28.12
2023-02-23T11:32:18.861Z,28.12
2023-02-23T11:38:41.848Z,11.25
2023-02-23T11:45:01.761Z,16.88
2023-02-23T11:51:24.814Z,16.88
2023-02-23T11:57:44.769Z,11.25
2023-02-23T12:04:07.831Z,11.25
2023-02-23T12:10:27.775Z,16.88
2023-02-23T12:16:50.910Z,16.88
2023-02-23T12:23:10.805Z,16.88
2023-02-23T12:29:33.764Z,22.5
2023-02-23T12:35:53.864Z,28.12
2023-02-23T12:42:16.780Z,28.12
2023-02-23T12:48:36.764Z,11.25
2023-02-23T12:55:00.101Z,11.25
2023-02-23T13:01:20.022Z,16.88
2023-02-23T13:07:42.755Z,22.5
2023-02-23T13:14:02.825Z,28.12
2023-02-23T13:20:25.765Z,11.25
2023-02-23T13:26:45.812Z,11.25
2023-02-23T13:33:08.813Z,5.62
2023-02-23T13:39:28.772Z,5.62
2023-02-23T13:45:51.815Z,5.62
2023-02-23T13:52:11.762Z,11.25
2023-02-23T13:58:34.822Z,5.62
2023-02-23T14:04:54.762Z,11.25
2023-02-23T14:11:18.089Z,16.88
2023-02-23T14:17:37.788Z,11.25
2023-02-23T14:24:00.743Z,11.25
2023-02-23T14:30:20.846Z,11.25
2023-02-23T14:36:43.836Z,11.25
2023-02-23T14:43:03.806Z,5.62
2023-02-23T14:49:26.838Z,5.62
2023-02-23T14:55:46.747Z,0
2023-02-23T15:02:09.928Z,5.62
2023-02-23T15:17:41.794Z,11.25
2023-02-23T15:24:01.769Z,5.62
2023-02-23T15:30:24.788Z,11.25
2023-02-23T15:36:44.859Z,11.25
2023-02-23T15:43:07.753Z,11.25
2023-02-23T15:49:27.839Z,11.25
2023-02-23T15:55:50.833Z,5.62
2023-02-23T16:02:10.760Z,0
2023-02-23T16:08:35.324Z,0
2023-02-23T16:14:54.753Z,0
2023-02-23T16:21:16.737Z,0
2023-02-23T16:27:36.805Z,0
2023-02-23T16:33:59.778Z,0
2023-02-23T16:40:19.775Z,0
2023-02-23T16:46:42.739Z,0
2023-02-23T16:53:02.800Z,0
2023-02-23T16:59:25.769Z,0
2023-02-23T17:05:45.774Z,0
2023-02-23T17:12:08.902Z,0
2023-02-23T17:18:28.802Z,0
2023-02-23T17:24:51.800Z,0
2023-02-23T17:31:11.888Z,0
2023-02-23T17:37:34.746Z,0
2023-02-23T17:43:54.773Z,0
2023-02-23T17:50:17.783Z,0
2023-02-23T17:56:37.776Z,0
2023-02-23T18:03:00.864Z,0
2023-02-23T18:09:20.816Z,0
2023-02-23T18:15:43.801Z,0
2023-02-23T18:22:03.777Z,0
2023-02-23T18:28:26.787Z,0
2023-02-23T18:34:46.796Z,0
2023-02-23T18:41:09.791Z,0
2023-02-23T18:47:29.825Z,0
2023-02-23T18:53:52.751Z,0
2023-02-23T19:00:12.778Z,0
2023-02-23T19:06:35.793Z,0
2023-02-23T19:12:55.748Z,0
2023-02-23T19:19:18.796Z,0
2023-02-23T19:25:38.798Z,0
2023-02-23T19:32:01.997Z,0
2023-02-23T19:38:21.805Z,0
2023-02-23T19:44:44.802Z,0
2023-02-23T19:51:04.864Z,0
2023-02-23T19:57:27.736Z,0
2023-02-23T20:03:47.775Z,0
2023-02-23T20:10:10.770Z,0
2023-02-23T20:16:30.788Z,0
2023-02-23T20:22:53.820Z,0
2023-02-23T20:38:25.666Z,0
2023-02-23T20:44:45.738Z,0
2023-02-23T20:51:08.748Z,0
2023-02-23T20:57:28.811Z,0
2023-02-23T21:03:51.822Z,0
2023-02-23T21:10:11.779Z,0
2023-02-23T21:16:34.899Z,0
2023-02-23T21:22:54.780Z,0
2023-02-23T21:29:17.834Z,0
2023-02-23T21:35:37.782Z,0
2023-02-23T21:42:00.729Z,0
2023-02-23T21:48:20.780Z,0
2023-02-23T21:54:43.781Z,0
2023-02-23T22:01:03.806Z,0
2023-02-23T22:07:26.748Z,0
2023-02-23T22:13:46.813Z,0
2023-02-23T22:20:09.795Z,0
2023-02-23T22:26:29.782Z,0
2023-02-23T22:32:53.068Z,0
2023-02-23T22:39:12.789Z,0
2023-02-23T22:45:35.794Z,0
2023-02-23T22:51:55.813Z,0
2023-02-23T22:58:18.774Z,0
2023-02-23T23:21:15.744Z,0
2023-02-23T23:27:35.827Z,0
2023-02-23T23:33:58.722Z,0
2023-02-23T23:40:18.865Z,0
2023-02-23T23:46:41.817Z,0
2023-02-23T23:53:01.858Z,0
2023-02-23T23:59:24.788Z,0
